Time;durP1;ratioP1;P1;durP2;ratioP2;P2;SDS_P1;SDS_P2;PMS_P1;PMS_P2;Temp;Humidity;BMP_temperature;BMP_pressure;BME280_temperature;BME280_humidity;BME280_pressure;Samples;Min_cycle;Max_cycle;Signal;HPM_P1;HPM_P2
2021/08/08 00:02:14;;;;;;;34.65;9.50;;;;;;;13.37;94.12;99616.41;4869448;29;20033;-86
2021/08/08 00:04:39;;;;;;;34.90;8.65;;;;;;;13.38;94.16;99634.25;4856148;29;20561;-86
2021/08/08 00:07:04;;;;;;;33.15;7.90;;;;;;;13.36;94.08;99633.63;4865180;29;20052;-86
2021/08/08 00:09:30;;;;;;;38.72;9.13;;;;;;;13.36;93.81;99628.22;4882061;29;20022;-86
2021/08/08 00:11:56;;;;;;;39.70;9.73;;;;;;;13.32;93.95;99618.94;4871558;29;20043;-87
2021/08/08 00:14:22;;;;;;;40.35;9.40;;;;;;;13.33;94.06;99625.97;4861196;29;20439;-86
2021/08/08 00:16:47;;;;;;;31.00;8.35;;;;;;;13.36;93.78;99634.47;4887125;29;20044;-85
2021/08/08 00:19:13;;;;;;;37.55;8.70;;;;;;;13.30;93.74;99619.16;4859121;29;20037;-85
2021/08/08 00:21:39;;;;;;;38.85;9.13;;;;;;;13.38;93.85;99631.53;4871415;29;20592;-86
2021/08/08 00:24:04;;;;;;;36.47;9.93;;;;;;;13.36;93.58;99626.38;4871244;29;20089;-86
2021/08/08 00:26:30;;;;;;;31.83;8.00;;;;;;;13.34;93.51;99630.34;4856016;29;20506;-87
2021/08/08 00:28:56;;;;;;;32.45;8.38;;;;;;;13.37;93.47;99630.72;4863480;29;20037;-86
2021/08/08 00:31:24;;;;;;;25.08;7.78;;;;;;;13.27;93.66;99613.38;4856864;29;20046;-86
2021/08/08 00:33:53;;;;;;;41.90;11.10;;;;;;;13.36;93.60;99634.47;4861862;29;20056;-86
2021/08/08 00:36:19;;;;;;;34.50;8.75;;;;;;;13.37;93.49;99643.41;4870553;29;20033;-86
2021/08/08 00:38:45;;;;;;;29.52;6.93;;;;;;;13.32;93.11;99632.44;4848538;29;20053;-86
2021/08/08 00:41:11;;;;;;;39.10;8.65;;;;;;;13.35;92.89;99632.81;4865859;29;20068;-86
2021/08/08 00:43:36;;;;;;;31.55;9.07;;;;;;;13.35;93.11;99629.28;4872921;29;20040;-86
2021/08/08 00:46:01;;;;;;;36.03;9.75;;;;;;;13.37;92.59;99632.59;4856442;29;20036;-86
2021/08/08 00:48:27;;;;;;;37.60;8.30;;;;;;;13.41;92.24;99642.72;4864011;29;20033;-86
2021/08/08 00:50:52;;;;;;;26.02;7.43;;;;;;;13.44;92.27;99643.34;4853350;29;20036;-87
2021/08/08 00:53:18;;;;;;;28.35;7.75;;;;;;;13.40;92.09;99638.38;4862579;29;20025;-86
2021/08/08 00:55:44;;;;;;;32.00;7.75;;;;;;;13.40;92.22;99634.84;4855690;29;20037;-86
2021/08/08 00:58:09;;;;;;;37.10;9.27;;;;;;;13.43;92.19;99637.09;4869352;29;20037;-86
2021/08/08 01:00:36;;;;;;;38.35;8.98;;;;;;;13.40;92.04;99638.38;4871996;29;20029;-86
2021/08/08 01:03:05;;;;;;;36.25;8.70;;;;;;;13.44;92.05;99641.44;4860333;29;20471;-86
2021/08/08 01:05:36;;;;;;;26.80;8.70;;;;;;;13.36;92.13;99623.69;4870670;29;20033;-85
2021/08/08 01:08:05;;;;;;;34.63;6.65;;;;;;;13.32;92.21;99633.25;4857454;29;20375;-85
2021/08/08 01:10:32;;;;;;;39.30;8.60;;;;;;;13.38;92.35;99643.16;4865322;29;20024;-86
2021/08/08 01:12:58;;;;;;;31.10;8.52;;;;;;;13.31;92.48;99631.63;4864839;29;20040;-86
2021/08/08 01:15:23;;;;;;;37.05;9.45;;;;;;;13.32;92.56;99648.63;4871648;29;20032;-85
2021/08/08 01:17:49;;;;;;;29.50;7.75;;;;;;;13.32;92.90;99649.47;4871241;29;20098;-86
2021/08/08 01:20:15;;;;;;;43.40;10.75;;;;;;;13.28;93.09;99648.22;4860393;29;20033;-86
2021/08/08 01:22:51;;;;;;;25.83;7.32;;;;;;;13.23;93.25;99652.63;4865578;29;20025;-87
2021/08/08 01:25:16;;;;;;;23.65;7.65;;;;;;;13.17;93.79;99644.34;4865522;29;20623;-86
2021/08/08 01:27:42;;;;;;;42.03;8.45;;;;;;;13.16;93.53;99648.09;4869604;29;20108;-85
2021/08/08 01:30:09;;;;;;;34.78;8.55;;;;;;;13.16;94.24;99658.91;4872506;29;20032;-86
2021/08/08 01:32:35;;;;;;;35.88;8.98;;;;;;;13.14;94.11;99657.47;4872684;29;20024;-86
2021/08/08 01:35:01;;;;;;;32.17;8.05;;;;;;;13.15;94.18;99659.09;4855523;29;20028;-86
2021/08/08 01:37:29;;;;;;;29.73;7.45;;;;;;;13.12;94.61;99663.06;4856200;29;20048;-86
2021/08/08 01:40:02;;;;;;;24.27;7.43;;;;;;;13.07;94.59;99660.22;4869386;29;20029;-86
2021/08/08 01:42:28;;;;;;;19.50;7.45;;;;;;;13.09;94.78;99666.22;4884102;29;20033;-86
2021/08/08 01:44:54;;;;;;;45.35;12.25;;;;;;;13.07;94.80;99672.88;4856296;29;20401;-87
2021/08/08 01:47:25;;;;;;;33.80;9.88;;;;;;;12.98;94.49;99659.66;4868917;29;20101;-86
2021/08/08 01:49:51;;;;;;;27.58;8.00;;;;;;;12.89;94.91;99644.78;4868101;29;20077;-86
2021/08/08 01:52:17;;;;;;;27.20;7.95;;;;;;;12.81;94.64;99638.81;4871566;29;20040;-86
2021/08/08 01:54:42;;;;;;;33.42;7.88;;;;;;;12.84;94.98;99641.91;4871015;29;20064;-86
2021/08/08 01:57:09;;;;;;;27.55;7.88;;;;;;;12.99;94.64;99671.25;4870559;29;20029;-86
2021/08/08 01:59:34;;;;;;;31.67;8.05;;;;;;;12.99;94.49;99671.25;4871595;29;20037;-86
2021/08/08 02:02:11;;;;;;;43.53;9.00;;;;;;;13.00;94.63;99682.91;4853737;29;20113;-86
2021/08/08 02:04:39;;;;;;;31.58;9.10;;;;;;;12.89;94.22;99660.97;4870389;29;20033;-86
2021/08/08 02:07:07;;;;;;;30.65;7.97;;;;;;;12.92;94.30;99665.94;4867835;29;20040;-86
2021/08/08 02:09:32;;;;;;;20.25;8.02;;;;;;;12.95;94.22;99676.28;4885567;29;20021;-86
2021/08/08 02:11:57;;;;;;;31.30;9.63;;;;;;;12.94;94.06;99668.44;4852676;29;20041;-86
2021/08/08 02:14:23;;;;;;;37.67;9.27;;;;;;;12.94;93.83;99665.72;4866324;29;20032;-86
2021/08/08 02:16:48;;;;;;;33.88;9.07;;;;;;;12.94;93.29;99674.63;4886008;29;20029;-86
2021/08/08 02:19:13;;;;;;;28.73;8.55;;;;;;;12.98;93.39;99680.41;4861199;29;20041;-86
2021/08/08 02:21:39;;;;;;;29.63;9.55;;;;;;;12.94;93.24;99673.81;4869246;29;20127;-87
2021/08/08 02:24:04;;;;;;;30.13;8.50;;;;;;;12.97;92.80;99673.38;4858958;29;20033;-86
2021/08/08 02:26:30;;;;;;;24.27;7.55;;;;;;;12.98;92.85;99669.63;4873666;29;20033;-86
2021/08/08 02:28:55;;;;;;;27.40;7.63;;;;;;;13.01;92.43;99673.75;4873651;29;20021;-86
2021/08/08 02:31:20;;;;;;;26.70;7.22;;;;;;;13.01;92.30;99666.47;4871494;29;20028;-86
2021/08/08 02:33:46;;;;;;;26.13;8.15;;;;;;;12.92;91.85;99655.13;4862335;29;20033;-86
2021/08/08 02:36:12;;;;;;;25.83;7.95;;;;;;;12.96;91.71;99658.22;4856804;29;20040;-86
2021/08/08 02:38:37;;;;;;;29.90;7.63;;;;;;;13.01;91.55;99661.09;4887996;29;20025;-86
2021/08/08 02:41:03;;;;;;;30.45;8.75;;;;;;;13.01;91.19;99671.06;4860304;29;20451;-86
2021/08/08 02:43:28;;;;;;;22.60;8.88;;;;;;;13.06;91.20;99673.94;4849546;29;20060;-86
2021/08/08 02:45:54;;;;;;;30.73;8.20;;;;;;;13.07;90.70;99675.56;4888865;29;20029;-86
2021/08/08 02:48:19;;;;;;;32.83;7.32;;;;;;;13.06;90.61;99669.34;4854988;29;20033;-86
2021/08/08 02:50:45;;;;;;;27.60;7.90;;;;;;;13.08;90.46;99679.94;4870500;29;20040;-85
2021/08/08 02:53:10;;;;;;;28.48;7.05;;;;;;;13.04;90.59;99676.00;4858050;29;20048;-86
2021/08/08 02:55:36;;;;;;;27.08;8.15;;;;;;;13.02;90.67;99673.56;4858498;29;20637;-86
2021/08/08 02:58:02;;;;;;;19.70;7.65;;;;;;;12.95;89.95;99665.50;4855446;29;20244;-86
2021/08/08 03:00:27;;;;;;;31.83;8.13;;;;;;;12.79;90.28;99649.00;4873283;29;20025;-86
2021/08/08 03:02:52;;;;;;;27.35;7.93;;;;;;;12.94;90.40;99663.84;4871538;29;20032;-86
2021/08/08 03:05:18;;;;;;;21.30;8.07;;;;;;;12.91;89.88;99674.22;4860010;29;20039;-86
2021/08/08 03:07:44;;;;;;;26.70;6.85;;;;;;;13.06;89.81;99687.44;4859811;29;20048;-86
2021/08/08 03:10:10;;;;;;;22.38;8.32;;;;;;;12.98;89.49;99686.63;4859851;29;20056;-85
2021/08/08 03:12:36;;;;;;;23.50;7.50;;;;;;;13.03;89.56;99685.16;4859660;29;20399;-86
2021/08/08 03:15:01;;;;;;;25.23;8.32;;;;;;;13.02;88.83;99691.59;4857959;29;20037;-86
2021/08/08 03:17:27;;;;;;;27.15;7.85;;;;;;;12.96;89.06;99687.91;4871292;29;20029;-85
2021/08/08 03:19:52;;;;;;;28.50;8.20;;;;;;;12.95;88.86;99689.78;4871177;29;20104;-87
2021/08/08 03:22:18;;;;;;;23.13;9.38;;;;;;;12.94;89.00;99688.13;4865580;29;20106;-86
2021/08/08 03:24:43;;;;;;;23.90;7.10;;;;;;;12.95;88.44;99692.47;4874062;29;20120;-85
2021/08/08 03:27:09;;;;;;;20.75;7.45;;;;;;;12.97;88.41;99700.38;4867427;29;20060;-86
2021/08/08 03:29:35;;;;;;;24.42;7.85;;;;;;;12.95;88.02;99699.75;4874246;29;20021;-86
2021/08/08 03:32:00;;;;;;;23.40;7.78;;;;;;;12.75;87.61;99671.03;4867763;29;20488;-86
2021/08/08 03:34:26;;;;;;;19.80;7.13;;;;;;;12.97;87.60;99713.84;4863336;29;20026;-86
2021/08/08 03:36:51;;;;;;;21.05;7.57;;;;;;;12.94;87.56;99708.91;4872070;29;20093;-86
2021/08/08 03:39:20;;;;;;;17.63;6.90;;;;;;;12.94;87.20;99719.69;4860903;29;20546;-87
2021/08/08 03:41:45;;;;;;;20.33;7.38;;;;;;;12.91;87.24;99714.69;4858226;29;20039;-86
2021/08/08 03:44:11;;;;;;;22.85;5.93;;;;;;;12.91;87.08;99723.66;4873902;29;20413;-87
2021/08/08 03:46:36;;;;;;;17.95;6.75;;;;;;;12.91;86.60;99717.41;4886755;29;20040;-86
2021/08/08 03:49:02;;;;;;;22.52;6.10;;;;;;;12.90;86.44;99713.06;4857718;29;20031;-86
2021/08/08 03:51:27;;;;;;;26.55;6.53;;;;;;;12.91;86.59;99707.47;4868423;29;20036;-86
2021/08/08 03:53:53;;;;;;;27.33;6.32;;;;;;;12.87;86.22;99716.19;4858194;29;20089;-86
2021/08/08 03:56:18;;;;;;;22.70;5.70;;;;;;;12.92;86.07;99724.47;4871692;29;20033;-86
2021/08/08 03:58:43;;;;;;;15.32;5.72;;;;;;;12.88;86.16;99707.03;4871276;29;20047;-86
2021/08/08 04:01:09;;;;;;;17.30;6.40;;;;;;;12.91;85.85;99720.94;4871593;29;20038;-86
2021/08/08 04:03:35;;;;;;;16.00;4.95;;;;;;;12.86;85.91;99718.06;4873294;29;20297;-86
2021/08/08 04:06:01;;;;;;;19.98;5.13;;;;;;;12.92;85.75;99721.78;4858793;29;20398;-86
2021/08/08 04:08:26;;;;;;;20.75;6.50;;;;;;;12.85;85.89;99724.50;4855838;29;20033;-87
2021/08/08 04:10:52;;;;;;;17.17;4.53;;;;;;;12.85;85.93;99719.09;4855667;29;20033;-87
2021/08/08 04:13:17;;;;;;;18.38;5.13;;;;;;;12.87;86.06;99724.28;4869895;29;20431;-86
2021/08/08 04:15:43;;;;;;;23.70;6.75;;;;;;;12.84;85.83;99733.63;4856484;29;20198;-86
2021/08/08 04:18:08;;;;;;;17.63;5.50;;;;;;;12.82;85.86;99724.94;4873036;29;20033;-87
2021/08/08 04:20:34;;;;;;;21.60;5.00;;;;;;;12.83;85.83;99733.84;4882362;29;20040;-87
2021/08/08 04:22:59;;;;;;;18.25;5.25;;;;;;;12.81;85.73;99728.69;4861739;29;20028;-86
2021/08/08 04:25:24;;;;;;;25.65;6.38;;;;;;;12.85;85.36;99739.84;4865791;29;20039;-87
2021/08/08 04:27:50;;;;;;;16.95;4.75;;;;;;;12.85;84.76;99739.84;4886940;29;20101;-87
2021/08/08 04:30:15;;;;;;;19.42;4.78;;;;;;;12.82;84.06;99734.88;4871661;29;20025;-87
2021/08/08 04:32:41;;;;;;;16.40;4.80;;;;;;;12.84;83.73;99739.03;4885412;29;20402;-86
2021/08/08 04:35:06;;;;;;;19.15;5.45;;;;;;;12.76;83.71;99723.09;4872680;29;20782;-86
2021/08/08 04:37:32;;;;;;;17.73;4.78;;;;;;;12.82;83.83;99743.81;4872711;29;20037;-87
2021/08/08 04:39:57;;;;;;;15.10;4.25;;;;;;;12.83;83.61;99742.75;4855221;29;20032;-86
2021/08/08 04:42:23;;;;;;;18.05;4.35;;;;;;;12.82;83.71;99748.38;4873157;29;20033;-87
2021/08/08 04:44:48;;;;;;;19.90;5.40;;;;;;;12.79;83.49;99755.03;4884567;29;20080;-87
2021/08/08 04:47:14;;;;;;;11.65;4.05;;;;;;;12.74;83.53;99744.88;4886186;29;20029;-87
2021/08/08 04:49:39;;;;;;;16.48;4.20;;;;;;;12.79;83.43;99746.13;4872556;29;20040;-86
2021/08/08 04:52:05;;;;;;;25.85;7.15;;;;;;;12.75;83.25;99740.31;4873190;29;20196;-87
2021/08/08 04:54:30;;;;;;;17.40;4.57;;;;;;;12.74;82.94;99755.66;4858116;29;20052;-85
2021/08/08 04:56:55;;;;;;;13.55;4.20;;;;;;;12.76;82.88;99760.88;4858149;29;20025;-86
2021/08/08 04:59:21;;;;;;;16.85;4.07;;;;;;;12.73;82.51;99755.91;4856717;29;20037;-87
2021/08/08 05:01:46;;;;;;;13.05;3.67;;;;;;;12.72;82.35;99757.75;4871522;29;20030;-86
2021/08/08 05:04:12;;;;;;;16.35;4.72;;;;;;;12.73;82.03;99756.72;4853431;29;20508;-86
2021/08/08 05:06:37;;;;;;;10.43;3.63;;;;;;;12.50;81.36;99718.66;4855969;29;20411;-86
2021/08/08 05:09:04;;;;;;;12.35;3.55;;;;;;;12.77;81.16;99759.81;4871661;29;20025;-86
2021/08/08 05:11:30;;;;;;;13.15;3.35;;;;;;;12.69;81.24;99752.78;4862456;29;20029;-87
2021/08/08 05:13:55;;;;;;;14.43;4.35;;;;;;;12.74;80.44;99771.84;4868070;29;20028;-86
2021/08/08 05:16:21;;;;;;;9.77;3.38;;;;;;;12.68;80.50;99759.22;4859845;29;20104;-85
2021/08/08 05:18:46;;;;;;;11.73;3.67;;;;;;;12.71;80.27;99772.28;4873228;29;20033;-85
2021/08/08 05:21:12;;;;;;;9.52;3.42;;;;;;;12.67;80.57;99759.44;4860375;29;20025;-87
2021/08/08 05:23:37;;;;;;;12.85;3.65;;;;;;;12.69;80.08;99760.88;4866937;29;20599;-87
2021/08/08 05:26:04;;;;;;;16.50;4.20;;;;;;;12.71;79.49;99772.28;4868877;29;20032;-87
2021/08/08 05:28:29;;;;;;;16.17;3.83;;;;;;;12.70;79.99;99770.66;4862902;29;20028;-86
2021/08/08 05:30:54;;;;;;;11.27;4.10;;;;;;;12.55;79.70;99740.41;4872929;29;20521;-87
2021/08/08 05:33:20;;;;;;;13.23;3.80;;;;;;;12.70;79.10;99770.66;4873748;29;20490;-86
2021/08/08 05:35:45;;;;;;;10.63;3.85;;;;;;;12.47;78.53;99729.88;4878926;29;20037;-86
2021/08/08 05:38:11;;;;;;;16.88;4.15;;;;;;;12.68;79.18;99766.50;4857377;29;20052;-86
2021/08/08 05:40:36;;;;;;;12.02;3.60;;;;;;;12.66;78.68;99766.69;4854189;29;20025;-86
2021/08/08 05:43:02;;;;;;;17.00;5.22;;;;;;;12.58;79.09;99768.81;4857431;29;20065;-86
2021/08/08 05:45:27;;;;;;;10.75;3.53;;;;;;;12.51;79.12;99766.13;4873551;29;20048;-86
2021/08/08 05:47:55;;;;;;;13.02;3.47;;;;;;;12.50;79.52;99780.66;4870770;29;20036;-86
2021/08/08 05:50:20;;;;;;;8.88;3.75;;;;;;;12.37;79.55;99754.56;4871633;29;20028;-86
2021/08/08 05:52:50;;;;;;;18.05;3.90;;;;;;;12.47;80.35;99779.22;4873423;29;20032;-86
2021/08/08 05:55:16;;;;;;;10.77;3.55;;;;;;;12.49;80.40;99792.47;4879547;29;20119;-87
2021/08/08 05:57:42;;;;;;;14.70;3.53;;;;;;;12.52;80.83;99795.59;4871369;29;20029;-86
2021/08/08 06:00:08;;;;;;;11.48;3.90;;;;;;;12.50;81.22;99780.66;4870471;29;20032;-87
2021/08/08 06:02:33;;;;;;;15.80;4.60;;;;;;;12.58;81.64;99788.53;4875414;29;20549;-87
2021/08/08 06:04:59;;;;;;;14.70;4.22;;;;;;;12.61;82.02;99796.19;4868232;29;20037;-87
2021/08/08 06:07:24;;;;;;;17.55;4.30;;;;;;;12.66;82.37;99785.59;4882280;29;20033;-87
2021/08/08 06:09:50;;;;;;;14.70;3.90;;;;;;;12.52;82.40;99768.63;4865764;29;20025;-87
2021/08/08 06:12:15;;;;;;;13.27;3.75;;;;;;;12.70;82.58;99786.81;4870807;29;20463;-87
2021/08/08 06:14:40;;;;;;;10.00;3.67;;;;;;;12.79;82.62;99794.69;4868004;29;20029;-88
2021/08/08 06:17:06;;;;;;;15.05;3.80;;;;;;;12.59;82.71;99754.28;4862268;29;20037;-87
2021/08/08 06:19:31;;;;;;;16.10;4.40;;;;;;;12.90;82.53;99788.59;4863301;29;20029;-87
2021/08/08 06:21:57;;;;;;;13.57;3.75;;;;;;;12.94;82.81;99803.34;4874328;29;20104;-86
2021/08/08 06:24:23;;;;;;;9.43;3.80;;;;;;;13.00;82.64;99807.03;4871704;29;20036;-86
2021/08/08 06:26:48;;;;;;;17.50;4.47;;;;;;;13.00;82.54;99807.84;4857663;29;20569;-86
2021/08/08 06:29:14;;;;;;;17.20;4.05;;;;;;;13.00;82.40;99807.03;4859972;29;20124;-86
2021/08/08 06:31:39;;;;;;;17.35;5.70;;;;;;;13.04;82.58;99806.38;4873904;29;20029;-86
2021/08/08 06:34:05;;;;;;;15.10;4.95;;;;;;;13.08;82.46;99812.19;4877694;29;20123;-86
2021/08/08 06:36:31;;;;;;;9.45;3.20;;;;;;;13.11;82.36;99814.44;4859259;29;20036;-86
2021/08/08 06:38:58;;;;;;;16.38;5.13;;;;;;;13.16;82.18;99823.56;4855089;29;20036;-86
2021/08/08 06:41:24;;;;;;;22.10;5.03;;;;;;;13.23;82.36;99828.06;4874485;29;20490;-86
2021/08/08 06:43:50;;;;;;;13.02;3.83;;;;;;;13.30;82.20;99820.81;4871079;29;20121;-86
2021/08/08 06:46:15;;;;;;;18.88;3.75;;;;;;;13.29;82.36;99811.88;4857415;29;20044;-86
2021/08/08 06:48:41;;;;;;;16.33;3.85;;;;;;;13.38;82.48;99826.78;4853345;29;20084;-86
2021/08/08 06:51:06;;;;;;;15.05;4.47;;;;;;;13.40;82.64;99824.69;4856540;29;20045;-86
2021/08/08 06:53:31;;;;;;;10.90;3.53;;;;;;;13.43;82.75;99822.59;4884447;29;20041;-86
2021/08/08 06:56:00;;;;;;;15.70;4.07;;;;;;;13.46;82.94;99823.00;4871820;29;20048;-86
2021/08/08 06:58:25;;;;;;;16.75;3.95;;;;;;;13.53;83.07;99831.88;4870874;29;20036;-86
2021/08/08 07:00:51;;;;;;;20.98;5.43;;;;;;;13.53;83.09;99834.59;4870461;29;20497;-86
2021/08/08 07:03:16;;;;;;;21.38;5.50;;;;;;;13.48;83.38;99839.81;4856705;29;20664;-86
2021/08/08 07:05:42;;;;;;;27.50;4.60;;;;;;;13.37;83.54;99841.31;4853734;29;20410;-86
2021/08/08 07:08:07;;;;;;;18.58;5.30;;;;;;;13.37;83.55;99851.31;4873259;29;20040;-86
2021/08/08 07:10:33;;;;;;;11.43;3.78;;;;;;;13.32;83.83;99854.66;4872458;29;20513;-86
2021/08/08 07:12:58;;;;;;;13.00;4.53;;;;;;;13.24;84.33;99851.34;4885412;29;20690;-86
2021/08/08 07:15:24;;;;;;;19.92;3.80;;;;;;;13.26;84.53;99855.53;4857030;29;20115;-85
2021/08/08 07:17:49;;;;;;;21.63;4.35;;;;;;;13.29;84.60;99856.97;4874647;29;20447;-86
2021/08/08 07:20:15;;;;;;;25.55;5.88;;;;;;;13.32;84.28;99845.72;4872339;29;20076;-85
2021/08/08 07:22:40;;;;;;;17.27;4.05;;;;;;;13.50;83.68;99842.31;4873082;29;20060;-86
2021/08/08 07:25:07;;;;;;;21.10;5.05;;;;;;;13.74;83.93;99857.72;4862467;29;20045;-86
2021/08/08 07:27:32;;;;;;;23.58;4.72;;;;;;;13.86;83.22;99849.72;4880821;29;20494;-85
2021/08/08 07:29:58;;;;;;;19.10;4.47;;;;;;;14.04;83.14;99854.38;4873474;29;20031;-86
2021/08/08 07:32:23;;;;;;;21.88;5.40;;;;;;;14.14;82.30;99846.59;4851767;29;20037;-86
2021/08/08 07:34:48;;;;;;;14.68;3.78;;;;;;;14.21;81.51;99847.38;4861692;29;20037;-86
2021/08/08 07:37:14;;;;;;;15.73;3.63;;;;;;;14.19;81.15;99854.06;4865435;29;20061;-87
2021/08/08 07:39:39;;;;;;;16.35;4.38;;;;;;;14.28;81.27;99858.94;4877292;29;20406;-87
2021/08/08 07:42:05;;;;;;;23.33;4.57;;;;;;;14.28;81.31;99858.94;4879306;29;20029;-88
2021/08/08 07:44:30;;;;;;;15.32;3.83;;;;;;;14.04;81.00;99835.44;4879576;29;20056;-87
2021/08/08 07:46:57;;;;;;;12.45;3.60;;;;;;;14.06;81.18;99839.59;4862526;29;20040;-87
2021/08/08 07:49:23;;;;;;;16.65;4.07;;;;;;;14.24;80.81;99865.03;4875072;29;20021;-87
2021/08/08 07:51:50;;;;;;;14.43;3.92;;;;;;;14.26;80.65;99858.34;4877420;29;20092;-88
2021/08/08 07:54:17;;;;;;;15.48;3.83;;;;;;;14.46;80.40;99874.38;4881887;29;20039;-87
2021/08/08 07:56:43;;;;;;;16.60;5.03;;;;;;;14.64;79.62;99878.19;4863816;29;20055;-87
2021/08/08 07:59:08;;;;;;;15.10;4.18;;;;;;;14.70;78.99;99872.69;4861081;29;21553;-88
2021/08/08 08:01:34;;;;;;;14.45;4.22;;;;;;;14.73;78.50;99866.00;4861377;29;20371;-88
2021/08/08 08:03:59;;;;;;;14.70;3.38;;;;;;;14.78;78.81;99874.28;4864062;29;20112;-87
2021/08/08 08:06:25;;;;;;;14.55;3.75;;;;;;;14.51;78.85;99849.38;4870027;29;20044;-87
2021/08/08 08:08:50;;;;;;;12.00;3.78;;;;;;;14.60;79.03;99882.38;4860370;29;20116;-88
2021/08/08 08:11:17;;;;;;;17.05;3.80;;;;;;;14.57;78.87;99891.78;4864860;29;20123;-87
2021/08/08 08:13:43;;;;;;;17.90;5.22;;;;;;;14.46;78.90;99881.66;4862958;29;20029;-90
2021/08/08 08:16:08;;;;;;;16.73;3.60;;;;;;;14.48;79.25;99890.41;4864493;29;20070;-88
2021/08/08 08:18:33;;;;;;;19.85;3.97;;;;;;;14.51;79.61;99895.34;4863364;29;20041;-88
2021/08/08 08:20:59;;;;;;;24.42;4.65;;;;;;;14.61;79.00;99900.28;4876253;29;20546;-86
2021/08/08 08:23:24;;;;;;;13.93;4.03;;;;;;;14.74;78.80;99894.75;4872121;29;20101;-86
2021/08/08 08:25:50;;;;;;;16.23;3.75;;;;;;;14.82;78.39;99905.28;4871662;29;20056;-86
2021/08/08 08:28:15;;;;;;;14.13;3.83;;;;;;;14.85;78.08;99899.41;4868931;29;20403;-85
2021/08/08 08:30:41;;;;;;;13.73;3.28;;;;;;;14.98;77.53;99911.97;4880449;29;20393;-85
2021/08/08 08:33:06;;;;;;;10.45;3.00;;;;;;;15.00;77.00;99900.91;4871284;29;20085;-86
2021/08/08 08:35:32;;;;;;;14.50;3.45;;;;;;;14.97;76.48;99904.06;4856868;29;20627;-86
2021/08/08 08:37:58;;;;;;;19.70;3.67;;;;;;;14.81;76.04;99905.50;4857965;29;20494;-86
2021/08/08 08:40:23;;;;;;;13.98;3.22;;;;;;;14.80;75.79;99910.06;4864160;29;20039;-86
2021/08/08 08:42:50;;;;;;;19.00;6.20;;;;;;;14.86;76.12;99909.16;4849738;29;20052;-86
2021/08/08 08:45:16;;;;;;;16.10;4.53;;;;;;;15.02;75.46;99910.44;4873692;29;20037;-86
2021/08/08 08:47:45;;;;;;;11.13;3.35;;;;;;;15.22;74.88;99915.66;4869295;29;20029;-86
2021/08/08 08:53:21;;;;;;;16.25;3.00;;;;;;;15.32;74.09;99902.41;4872980;29;20102;-86
2021/08/08 08:55:47;;;;;;;13.63;3.45;;;;;;;15.36;73.80;99891.94;4871685;29;20520;-86
2021/08/08 08:58:13;;;;;;;12.90;3.83;;;;;;;15.57;73.98;99931.25;4864846;29;20036;-86
2021/08/08 09:00:38;;;;;;;11.73;3.25;;;;;;;15.72;73.30;99928.16;4856951;29;20032;-86
2021/08/08 09:03:03;;;;;;;13.10;3.47;;;;;;;15.77;73.61;99920.16;4858104;29;20752;-86
2021/08/08 09:05:30;;;;;;;11.10;3.25;;;;;;;16.06;73.03;99942.88;4854819;29;20025;-86
2021/08/08 09:07:56;;;;;;;15.50;3.25;;;;;;;16.17;72.19;99942.09;4870374;29;20116;-86
2021/08/08 09:10:22;;;;;;;12.50;3.80;;;;;;;16.23;71.47;99943.06;4870271;29;20113;-86
2021/08/08 09:12:59;;;;;;;10.27;3.88;;;;;;;16.46;71.17;99948.50;4887606;29;20425;-87
2021/08/08 09:15:35;;;;;;;9.82;3.05;;;;;;;16.83;69.62;99932.03;4860857;29;20028;-86
2021/08/08 09:18:23;;;;;;;10.70;3.30;;;;;;;17.20;68.55;99939.06;4886930;29;20387;-89
2021/08/08 09:20:50;;;;;;;10.60;3.20;;;;;;;17.26;68.56;99952.50;4873092;29;20119;-89
2021/08/08 09:23:16;;;;;;;10.63;2.97;;;;;;;17.40;68.37;99942.19;4861730;29;20517;-89
2021/08/08 09:25:56;;;;;;;12.77;3.13;;;;;;;17.48;68.01;99947.25;4889240;29;20033;-89
2021/08/08 09:28:30;;;;;;;11.95;4.15;;;;;;;17.67;66.97;99939.72;4873014;29;20120;-87
2021/08/08 09:30:56;;;;;;;12.48;3.22;;;;;;;17.39;66.36;99946.00;4868528;29;20082;-87
2021/08/08 09:33:21;;;;;;;9.30;3.05;;;;;;;17.54;65.29;99940.03;4877077;29;20029;-86
2021/08/08 09:35:52;;;;;;;12.50;3.40;;;;;;;17.70;65.32;99954.75;4876907;29;20037;-87
2021/08/08 09:38:18;;;;;;;12.20;3.40;;;;;;;17.42;65.91;99953.66;4866748;29;20399;-86
2021/08/08 09:40:43;;;;;;;9.77;3.30;;;;;;;17.09;66.42;99949.72;4886083;29;20031;-87
2021/08/08 09:43:11;;;;;;;9.00;3.40;;;;;;;17.04;67.41;99965.91;4869357;29;20029;-87
2021/08/08 09:45:43;;;;;;;9.25;3.50;;;;;;;17.01;67.47;99954.66;4876945;29;20033;-86
2021/08/08 09:48:12;;;;;;;7.60;2.85;;;;;;;17.05;66.42;99964.81;4875557;29;20027;-87
2021/08/08 09:50:42;;;;;;;15.75;3.40;;;;;;;17.01;66.74;99963.63;4870191;29;20039;-86
2021/08/08 09:53:10;;;;;;;9.88;3.00;;;;;;;17.42;65.79;99956.38;4861781;29;20025;-87
2021/08/08 09:55:39;;;;;;;11.85;2.83;;;;;;;17.84;64.80;99964.31;4871925;29;20029;-87
2021/08/08 09:58:16;;;;;;;8.45;2.90;;;;;;;18.17;63.98;99944.47;4865705;29;20112;-87
2021/08/08 10:00:41;;;;;;;12.15;3.63;;;;;;;18.70;62.86;99950.50;4884520;29;20514;-87
2021/08/08 10:03:08;;;;;;;8.63;2.45;;;;;;;18.79;61.25;99949.06;4877242;29;20041;-87
2021/08/08 10:05:36;;;;;;;13.40;2.83;;;;;;;18.51;60.48;99954.56;4877175;29;20025;-87
2021/08/08 10:08:08;;;;;;;12.15;3.13;;;;;;;18.29;61.31;99958.03;4876760;29;20029;-87
2021/08/08 10:10:36;;;;;;;11.07;3.37;;;;;;;18.56;61.16;99954.66;4871536;29;20040;-86
2021/08/08 10:13:21;;;;;;;11.50;3.33;;;;;;;18.87;61.33;99956.81;4869057;29;20081;-87
2021/08/08 10:15:49;;;;;;;8.95;3.13;;;;;;;19.03;60.74;99959.75;4877891;29;20490;-87
2021/08/08 10:18:16;;;;;;;5.85;1.98;;;;;;;18.82;60.26;99970.34;4863890;29;20040;-87
2021/08/08 10:20:43;;;;;;;11.75;3.38;;;;;;;18.51;59.90;99954.56;4875882;29;20029;-86
2021/08/08 10:23:15;;;;;;;9.80;2.85;;;;;;;18.59;60.03;99974.03;4865855;29;20056;-87
2021/08/08 10:25:44;;;;;;;8.35;2.70;;;;;;;18.86;60.46;99948.88;4861936;29;20174;-87
2021/08/08 10:28:10;;;;;;;5.95;2.58;;;;;;;18.96;60.46;99965.38;4868158;29;20067;-87
2021/08/08 10:30:36;;;;;;;8.32;2.75;;;;;;;18.77;59.63;99959.38;4865341;29;20082;-86
2021/08/08 10:33:03;;;;;;;9.20;3.15;;;;;;;18.59;60.06;99967.78;4894504;29;20602;-87
2021/08/08 10:35:39;;;;;;;10.68;2.65;;;;;;;18.24;61.80;99972.38;4864367;29;20036;-87
2021/08/08 10:38:05;;;;;;;9.60;2.85;;;;;;;17.81;62.76;99959.34;4857971;29;20055;-87
2021/08/08 10:40:32;;;;;;;7.57;2.90;;;;;;;17.64;63.59;99982.91;4871346;29;20409;-87
2021/08/08 10:42:59;;;;;;;13.68;3.50;;;;;;;17.46;64.55;99962.16;4876391;29;20052;-87
2021/08/08 10:45:26;;;;;;;11.93;3.10;;;;;;;18.02;64.50;99974.97;4860321;29;20025;-87
2021/08/08 10:47:59;;;;;;;12.70;3.50;;;;;;;18.51;62.56;99976.34;4863912;29;20085;-87
2021/08/08 10:50:35;;;;;;;13.50;3.50;;;;;;;18.89;59.63;99968.28;4868238;29;20033;-87
2021/08/08 10:53:00;;;;;;;9.65;2.70;;;;;;;18.75;60.30;99975.13;4873915;29;20029;-86
2021/08/08 10:55:29;;;;;;;10.93;3.65;;;;;;;18.42;60.28;99978.66;4872222;29;20089;-86
2021/08/08 10:57:55;;;;;;;11.05;3.35;;;;;;;18.14;61.88;99985.78;4857945;29;20030;-86
2021/08/08 11:00:20;;;;;;;8.23;2.88;;;;;;;17.92;61.98;99982.13;4874995;29;20085;-86
2021/08/08 11:02:47;;;;;;;14.38;3.30;;;;;;;17.74;62.48;99983.94;4894380;29;20033;-88
2021/08/08 11:05:14;;;;;;;11.35;2.63;;;;;;;17.78;62.49;99990.53;4865839;29;20044;-87
2021/08/08 11:07:40;;;;;;;9.98;2.80;;;;;;;17.67;62.61;99996.00;4882347;29;20558;-85
2021/08/08 11:10:07;;;;;;;5.78;2.35;;;;;;;17.52;63.06;99997.34;4875750;29;20128;-86
2021/08/08 11:12:37;;;;;;;6.80;2.70;;;;;;;17.34;62.96;100000.22;4877147;29;20068;-86
2021/08/08 11:15:04;;;;;;;7.53;2.22;;;;;;;17.26;63.54;99990.56;4876051;29;20021;-87
2021/08/08 11:17:29;;;;;;;9.13;3.00;;;;;;;17.39;64.01;100000.34;4873691;29;20075;-87
2021/08/08 11:19:55;;;;;;;9.75;2.60;;;;;;;17.53;63.77;99998.19;4866720;29;20491;-86
2021/08/08 11:22:21;;;;;;;14.10;2.88;;;;;;;17.57;64.14;99994.75;4874301;29;20037;-88
2021/08/08 11:25:06;;;;;;;10.10;2.60;;;;;;;17.59;63.70;100003.47;4873099;29;20041;-87
2021/08/08 11:27:40;;;;;;;10.68;3.22;;;;;;;17.65;64.24;99993.56;4868019;29;20447;-88